WXM80 ListenWXM80 Stop

You find our weather info also at:

UK Metoffice

WeatherCloud

Weather Underground

Northeastern Weather Network

AWEKAS

Citizen Weather Observer Program (CWOP)

HAMweather, WeatherForYou, PWS Weather


Weather Underground History page Text

Daily Summary for July 1, 2017 Units:  Both    English   Metric
« Previous Day
Next Day »
Daily Weekly Monthly Yearly Custom
  High: Low: Average:
Temperature: 86.3 °F /  30.2 °C 70.6 °F /  21.4 °C 76.2 °F /  24.6 °C
Dew Point: 77.5 °F /  25.3 °C 67.6 °F /  19.8 °C 71.1 °F /  21.7 °C
Humidity: 93 % 69 % 84 %
Wind Speed: 8.2 mph /  13.2 km/h - 1.6 mph /  2.6 km/h
Wind Gust: 16.1 mph /  25.9 km/h - -
Wind:- - South
Pressure: 29.95 in /  1014.1 hPa 29.82 in /  1009.7 hPa -
Precipitation: 0.01 in /  0.25 mm    
Historical Graphs
 
 
Tabular Data for July 1, 2017
Time Temperature Dew Point Pressure Wind Wind Speed Wind Gust Humidity Rainfall Rate (Hourly)
00:02 74.4 °F /  23.6 °C 68.9 °F /  20.5 °C 29.91 in /  1012.8 hPa South 1.1 mph /  1.8 km/h 3.5 mph /  5.6 km/h 83 % 0.00 in /  0 mm
00:07 74.5 °F /  23.6 °C 69.0 °F /  20.6 °C 29.91 in /  1012.8 hPa South 1.4 mph /  2.3 km/h 3.5 mph /  5.6 km/h 83 % 0.00 in /  0 mm
00:12 74.5 °F /  23.6 °C 69.0 °F /  20.6 °C 29.91 in /  1012.8 hPa South 2.8 mph /  4.5 km/h 4.6 mph /  7.4 km/h 83 % 0.00 in /  0 mm
00:17 74.5 °F /  23.6 °C 69.0 °F /  20.6 °C 29.91 in /  1012.8 hPa South 0.8 mph /  1.3 km/h 3.5 mph /  5.6 km/h 83 % 0.00 in /  0 mm
00:22 74.5 °F /  23.6 °C 69.0 °F /  20.6 °C 29.91 in /  1012.8 hPa SSW 0.7 mph /  1.1 km/h 3.5 mph /  5.6 km/h 83 % 0.00 in /  0 mm
00:27 74.5 °F /  23.6 °C 69.0 °F /  20.6 °C 29.91 in /  1012.8 hPa SSW 3.1 mph /  5 km/h 4.6 mph /  7.4 km/h 83 % 0.00 in /  0 mm
00:32 74.5 °F /  23.6 °C 69.0 °F /  20.6 °C 29.91 in /  1012.8 hPa SW 3.0 mph /  4.8 km/h 5.8 mph /  9.3 km/h 83 % 0.00 in /  0 mm
00:37 74.5 °F /  23.6 °C 69.0 °F /  20.6 °C 29.91 in /  1012.8 hPa SSW 0.1 mph /  0.2 km/h 2.3 mph /  3.7 km/h 83 % 0.00 in /  0 mm
00:42 74.5 °F /  23.6 °C 69.0 °F /  20.6 °C 29.91 in /  1012.8 hPa SW 2.0 mph /  3.2 km/h 3.5 mph /  5.6 km/h 83 % 0.00 in /  0 mm
00:47 74.5 °F /  23.6 °C 69.0 °F /  20.6 °C 29.91 in /  1012.8 hPa WSW 2.9 mph /  4.7 km/h 6.9 mph /  11.1 km/h 83 % 0.00 in /  0 mm
00:52 74.5 °F /  23.6 °C 69.0 °F /  20.6 °C 29.91 in /  1012.8 hPa SSW 3.4 mph /  5.5 km/h 8.1 mph /  13 km/h 83 % 0.00 in /  0 mm
00:57 74.4 °F /  23.6 °C 68.9 °F /  20.5 °C 29.92 in /  1013.1 hPa South 3.5 mph /  5.6 km/h 5.8 mph /  9.3 km/h 83 % 0.00 in /  0 mm
00:58 74.4 °F /  23.6 °C 68.9 °F /  20.5 °C 29.91 in /  1012.8 hPa SW 1.4 mph /  2.3 km/h 4.0 mph /  6.4 km/h 83 % 0.00 in /  0 mm
01:03 74.4 °F /  23.6 °C 68.9 °F /  20.5 °C 29.92 in /  1013.1 hPa SW 2.4 mph /  3.9 km/h 5.0 mph /  8 km/h 83 % 0.00 in /  0 mm
01:08 74.3 °F /  23.5 °C 68.8 °F /  20.4 °C 29.92 in /  1013.1 hPa South 1.7 mph /  2.7 km/h 3.5 mph /  5.6 km/h 83 % 0.00 in /  0 mm
01:13 74.2 °F /  23.4 °C 68.7 °F /  20.4 °C 29.92 in /  1013.1 hPa SSW 0.3 mph /  0.5 km/h 2.3 mph /  3.7 km/h 83 % 0.00 in /  0 mm
01:18 74.1 °F /  23.4 °C 68.6 °F /  20.3 °C 29.92 in /  1013.1 hPa South 0.4 mph /  0.6 km/h 3.0 mph /  4.8 km/h 83 % 0.00 in /  0 mm
01:23 74.0 °F /  23.3 °C 68.5 °F /  20.3 °C 29.92 in /  1013.1 hPa SSW 0.9 mph /  1.4 km/h 3.5 mph /  5.6 km/h 83 % 0.00 in /  0 mm
01:28 73.8 °F /  23.2 °C 68.3 °F /  20.2 °C 29.91 in /  1012.8 hPa SSW 0.3 mph /  0.5 km/h 2.3 mph /  3.7 km/h 83 % 0.00 in /  0 mm
01:33 73.7 °F /  23.2 °C 68.2 °F /  20.1 °C 29.91 in /  1012.8 hPa SSE 1.1 mph /  1.8 km/h 4.6 mph /  7.4 km/h 83 % 0.00 in /  0 mm
01:38 73.5 °F /  23.1 °C 68.0 °F /  20 °C 29.91 in /  1012.8 hPa SSW 0.4 mph /  0.6 km/h 1.2 mph /  1.9 km/h 83 % 0.00 in /  0 mm
01:43 73.4 °F /  23 °C 68.3 °F /  20.2 °C 29.91 in /  1012.8 hPa Calm   1.2 mph /  1.9 km/h 84 % 0.00 in /  0 mm
01:48 73.2 °F /  22.9 °C 68.1 °F /  20.1 °C 29.91 in /  1012.8 hPa Calm   1.2 mph /  1.9 km/h 84 % 0.00 in /  0 mm
01:53 73.1 °F /  22.8 °C 68.0 °F /  20 °C 29.91 in /  1012.8 hPa South 1.0 mph /  1.6 km/h 4.6 mph /  7.4 km/h 84 % 0.00 in /  0 mm
01:58 72.9 °F /  22.7 °C 67.8 °F /  19.9 °C 29.91 in /  1012.8 hPa SSE 0.2 mph /  0.3 km/h 1.2 mph /  1.9 km/h 84 % 0.00 in /  0 mm
02:03 72.8 °F /  22.7 °C 68.0 °F /  20 °C 29.91 in /  1012.8 hPa SSW 0.1 mph /  0.2 km/h 1.2 mph /  1.9 km/h 85 % 0.00 in /  0 mm
02:08 72.7 °F /  22.6 °C 67.9 °F /  19.9 °C 29.91 in /  1012.8 hPa SSW 0.4 mph /  0.6 km/h 1.2 mph /  1.9 km/h 85 % 0.00 in /  0 mm
02:13 72.5 °F /  22.5 °C 67.7 °F /  19.8 °C 29.90 in /  1012.4 hPa South 0.2 mph /  0.3 km/h 1.2 mph /  1.9 km/h 85 % 0.00 in /  0 mm
02:18 72.4 °F /  22.4 °C 68.0 °F /  20 °C 29.90 in /  1012.4 hPa SSE 0.9 mph /  1.4 km/h 3.5 mph /  5.6 km/h 86 % 0.00 in /  0 mm
02:23 72.2 °F /  22.3 °C 67.8 °F /  19.9 °C 29.90 in /  1012.4 hPa SE 1.0 mph /  1.6 km/h 4.0 mph /  6.4 km/h 86 % 0.00 in /  0 mm
02:28 72.2 °F /  22.3 °C 67.8 °F /  19.9 °C 29.90 in /  1012.4 hPa ESE 0.8 mph /  1.3 km/h 2.3 mph /  3.7 km/h 86 % 0.00 in /  0 mm
02:33 72.1 °F /  22.3 °C 68.0 °F /  20 °C 29.90 in /  1012.4 hPa SSE 0.3 mph /  0.5 km/h 1.2 mph /  1.9 km/h 87 % 0.00 in /  0 mm
02:38 72.0 °F /  22.2 °C 67.9 °F /  19.9 °C 29.90 in /  1012.4 hPa South 0.5 mph /  0.8 km/h 2.3 mph /  3.7 km/h 87 % 0.00 in /  0 mm
02:43 72.0 °F /  22.2 °C 67.9 °F /  19.9 °C 29.90 in /  1012.4 hPa SE 1.0 mph /  1.6 km/h 3.5 mph /  5.6 km/h 87 % 0.00 in /  0 mm
02:48 72.0 °F /  22.2 °C 67.9 °F /  19.9 °C 29.90 in /  1012.4 hPa SSE 0.1 mph /  0.2 km/h 1.2 mph /  1.9 km/h 87 % 0.00 in /  0 mm
02:53 71.9 °F /  22.2 °C 68.2 °F /  20.1 °C 29.89 in /  1012.1 hPa SSE 0.1 mph /  0.2 km/h 3.5 mph /  5.6 km/h 88 % 0.00 in /  0 mm
02:58 71.9 °F /  22.2 °C 68.2 °F /  20.1 °C 29.89 in /  1012.1 hPa SSW 1.3 mph /  2.1 km/h 3.5 mph /  5.6 km/h 88 % 0.00 in /  0 mm
03:03 71.9 °F /  22.2 °C 68.2 °F /  20.1 °C 29.90 in /  1012.4 hPa SSW 0.1 mph /  0.2 km/h 3.5 mph /  5.6 km/h 88 % 0.00 in /  0 mm
03:05 71.9 °F /  22.2 °C 68.2 °F /  20.1 °C 29.89 in /  1012.1 hPa SSW 0.3 mph /  0.5 km/h 3.5 mph /  5.6 km/h 88 % 0.00 in /  0 mm
03:10 71.9 °F /  22.2 °C 68.2 °F /  20.1 °C 29.89 in /  1012.1 hPa SE 1.1 mph /  1.8 km/h 2.3 mph /  3.7 km/h 88 % 0.00 in /  0 mm
03:15 71.9 °F /  22.2 °C 68.2 °F /  20.1 °C 29.89 in /  1012.1 hPa SSE 0.3 mph /  0.5 km/h 1.2 mph /  1.9 km/h 88 % 0.00 in /  0 mm
03:21 71.9 °F /  22.2 °C 68.2 °F /  20.1 °C 29.89 in /  1012.1 hPa SSE 0.1 mph /  0.2 km/h 1.2 mph /  1.9 km/h 88 % 0.00 in /  0 mm
03:26 71.9 °F /  22.2 °C 68.2 °F /  20.1 °C 29.89 in /  1012.1 hPa South 0.9 mph /  1.4 km/h 3.5 mph /  5.6 km/h 88 % 0.00 in /  0 mm
03:31 71.8 °F /  22.1 °C 68.1 °F /  20.1 °C 29.89 in /  1012.1 hPa Calm   4.0 mph /  6.4 km/h 88 % 0.00 in /  0 mm
03:36 71.8 °F /  22.1 °C 68.1 °F /  20.1 °C 29.89 in /  1012.1 hPa South 1.0 mph /  1.6 km/h 6.0 mph /  9.7 km/h 88 % 0.00 in /  0 mm
03:41 71.8 °F /  22.1 °C 68.1 °F /  20.1 °C 29.89 in /  1012.1 hPa SSW 1.0 mph /  1.6 km/h 7.0 mph /  11.3 km/h 88 % 0.00 in /  0 mm
03:46 71.7 °F /  22.1 °C 68.0 °F /  20 °C 29.89 in /  1012.1 hPa SSW 1.0 mph /  1.6 km/h 4.0 mph /  6.4 km/h 88 % 0.00 in /  0 mm
03:51 71.7 °F /  22.1 °C 68.0 °F /  20 °C 29.89 in /  1012.1 hPa SE 0.7 mph /  1.1 km/h 4.0 mph /  6.4 km/h 88 % 0.00 in /  0 mm
03:56 71.6 °F /  22 °C 67.9 °F /  19.9 °C 29.89 in /  1012.1 hPa South 1.0 mph /  1.6 km/h 4.0 mph /  6.4 km/h 88 % 0.00 in /  0 mm
04:01 71.6 °F /  22 °C 67.9 °F /  19.9 °C 29.89 in /  1012.1 hPa SE 0.4 mph /  0.6 km/h 1.2 mph /  1.9 km/h 88 % 0.00 in /  0 mm
04:06 71.5 °F /  21.9 °C 67.8 °F /  19.9 °C 29.89 in /  1012.1 hPa South 0.5 mph /  0.8 km/h 2.3 mph /  3.7 km/h 88 % 0.00 in /  0 mm
04:11 71.5 °F /  21.9 °C 68.1 °F /  20.1 °C 29.89 in /  1012.1 hPa SSW 0.3 mph /  0.5 km/h 3.5 mph /  5.6 km/h 89 % 0.00 in /  0 mm
04:16 71.5 °F /  21.9 °C 68.1 °F /  20.1 °C 29.89 in /  1012.1 hPa WSW 0.1 mph /  0.2 km/h 3.5 mph /  5.6 km/h 89 % 0.00 in /  0 mm
04:21 71.5 °F /  21.9 °C 68.1 °F /  20.1 °C 29.90 in /  1012.4 hPa Calm   1.0 mph /  1.6 km/h 89 % 0.00 in /  0 mm
04:26 71.4 °F /  21.9 °C 68.0 °F /  20 °C 29.90 in /  1012.4 hPa WSW 0.7 mph /  1.1 km/h 2.3 mph /  3.7 km/h 89 % 0.00 in /  0 mm
04:31 71.3 °F /  21.8 °C 67.9 °F /  19.9 °C 29.90 in /  1012.4 hPa SW 0.2 mph /  0.3 km/h 1.2 mph /  1.9 km/h 89 % 0.00 in /  0 mm
04:36 71.3 °F /  21.8 °C 67.9 °F /  19.9 °C 29.90 in /  1012.4 hPa SW 0.1 mph /  0.2 km/h 1.2 mph /  1.9 km/h 89 % 0.00 in /  0 mm
04:41 71.2 °F /  21.8 °C 67.8 °F /  19.9 °C 29.90 in /  1012.4 hPa SE 0.5 mph /  0.8 km/h 4.6 mph /  7.4 km/h 89 % 0.00 in /  0 mm
04:46 71.2 °F /  21.8 °C 67.8 °F /  19.9 °C 29.90 in /  1012.4 hPa ESE 0.6 mph /  1 km/h 2.3 mph /  3.7 km/h 89 % 0.00 in /  0 mm
04:51 71.1 °F /  21.7 °C 67.7 °F /  19.8 °C 29.90 in /  1012.4 hPa Calm   1.2 mph /  1.9 km/h 89 % 0.00 in /  0 mm
04:56 71.1 °F /  21.7 °C 68.0 °F /  20 °C 29.90 in /  1012.4 hPa SE 0.2 mph /  0.3 km/h 2.0 mph /  3.2 km/h 90 % 0.00 in /  0 mm
05:01 71.0 °F /  21.7 °C 67.9 °F /  19.9 °C 29.90 in /  1012.4 hPa SE 0.1 mph /  0.2 km/h 2.3 mph /  3.7 km/h 90 % 0.00 in /  0 mm
05:06 71.0 °F /  21.7 °C 67.9 °F /  19.9 °C 29.90 in /  1012.4 hPa Calm   1.0 mph /  1.6 km/h 90 % 0.00 in /  0 mm
05:11 70.9 °F /  21.6 °C 67.8 °F /  19.9 °C 29.91 in /  1012.8 hPa Calm   1.2 mph /  1.9 km/h 90 % 0.00 in /  0 mm
05:16 70.8 °F /  21.6 °C 67.7 °F /  19.8 °C 29.91 in /  1012.8 hPa WSW 0.1 mph /  0.2 km/h 2.3 mph /  3.7 km/h 90 % 0.00 in /  0 mm
05:21 70.8 °F /  21.6 °C 67.7 °F /  19.8 °C 29.91 in /  1012.8 hPa WSW 0.1 mph /  0.2 km/h 1.0 mph /  1.6 km/h 90 % 0.00 in /  0 mm
05:26 70.7 °F /  21.5 °C 67.6 °F /  19.8 °C 29.91 in /  1012.8 hPa Calm   1.2 mph /  1.9 km/h 90 % 0.00 in /  0 mm
05:31 70.7 °F /  21.5 °C 67.6 °F /  19.8 °C 29.92 in /  1013.1 hPa SSW 0.4 mph /  0.6 km/h 2.0 mph /  3.2 km/h 90 % 0.00 in /  0 mm
05:36 70.6 °F /  21.4 °C 67.8 °F /  19.9 °C 29.92 in /  1013.1 hPa WSW 0.1 mph /  0.2 km/h 1.2 mph /  1.9 km/h 91 % 0.00 in /  0 mm
05:42 70.6 °F /  21.4 °C 67.8 °F /  19.9 °C 29.92 in /  1013.1 hPa Calm   1.2 mph /  1.9 km/h 91 % 0.00 in /  0 mm
05:47 70.6 °F /  21.4 °C 67.8 °F /  19.9 °C 29.92 in /  1013.1 hPa Calm   3.5 mph /  5.6 km/h 91 % 0.00 in /  0 mm
05:52 70.6 °F /  21.4 °C 68.2 °F /  20.1 °C 29.92 in /  1013.1 hPa WNW 0.1 mph /  0.2 km/h 1.2 mph /  1.9 km/h 92 % 0.00 in /  0 mm
05:57 70.6 °F /  21.4 °C 68.2 °F /  20.1 °C 29.92 in /  1013.1 hPa Calm   1.2 mph /  1.9 km/h 92 % 0.00 in /  0 mm
06:02 70.6 °F /  21.4 °C 68.2 °F /  20.1 °C 29.92 in /  1013.1 hPa Calm     92 % 0.00 in /  0 mm
06:07 70.7 °F /  21.5 °C 68.3 °F /  20.2 °C 29.92 in /  1013.1 hPa Calm   1.2 mph /  1.9 km/h 92 % 0.00 in /  0 mm
06:12 70.7 °F /  21.5 °C 68.3 °F /  20.2 °C 29.92 in /  1013.1 hPa SSW 0.1 mph /  0.2 km/h 1.2 mph /  1.9 km/h 92 % 0.00 in /  0 mm
06:17 70.8 °F /  21.6 °C 68.4 °F /  20.2 °C 29.92 in /  1013.1 hPa Calm     92 % 0.00 in /  0 mm
06:22 70.9 °F /  21.6 °C 68.5 °F /  20.3 °C 29.92 in /  1013.1 hPa Calm     92 % 0.00 in /  0 mm
06:27 71.0 °F /  21.7 °C 68.6 °F /  20.3 °C 29.93 in /  1013.4 hPa East 0.1 mph /  0.2 km/h 1.2 mph /  1.9 km/h 92 % 0.00 in /  0 mm
06:32 71.2 °F /  21.8 °C 69.1 °F /  20.6 °C 29.93 in /  1013.4 hPa East 0.8 mph /  1.3 km/h 5.0 mph /  8 km/h 93 % 0.00 in /  0 mm
06:37 71.3 °F /  21.8 °C 68.9 °F /  20.5 °C 29.93 in /  1013.4 hPa Calm   1.2 mph /  1.9 km/h 92 % 0.00 in /  0 mm
06:42 71.5 °F /  21.9 °C 69.4 °F /  20.8 °C 29.93 in /  1013.4 hPa SSW 0.1 mph /  0.2 km/h 1.2 mph /  1.9 km/h 93 % 0.00 in /  0 mm
06:47 71.7 °F /  22.1 °C 69.3 °F /  20.7 °C 29.93 in /  1013.4 hPa SSE 0.7 mph /  1.1 km/h 2.3 mph /  3.7 km/h 92 % 0.00 in /  0 mm
06:52 71.9 °F /  22.2 °C 69.4 °F /  20.8 °C 29.93 in /  1013.4 hPa Calm     92 % 0.00 in /  0 mm
06:57 72.2 °F /  22.3 °C 69.7 °F /  20.9 °C 29.93 in /  1013.4 hPa Calm     92 % 0.00 in /  0 mm
07:02 72.5 °F /  22.5 °C 70.0 °F /  21.1 °C 29.93 in /  1013.4 hPa SSE 0.1 mph /  0.2 km/h 1.0 mph /  1.6 km/h 92 % 0.00 in /  0 mm
07:07 72.9 °F /  22.7 °C 70.4 °F /  21.3 °C 29.93 in /  1013.4 hPa SE 0.1 mph /  0.2 km/h   92 % 0.00 in /  0 mm
07:12 73.2 °F /  22.9 °C 70.4 °F /  21.3 °C 29.94 in /  1013.8 hPa Calm   1.2 mph /  1.9 km/h 91 % 0.00 in /  0 mm
07:17 73.6 °F /  23.1 °C 70.8 °F /  21.6 °C 29.93 in /  1013.4 hPa SE 0.9 mph /  1.4 km/h 2.3 mph /  3.7 km/h 91 % 0.00 in /  0 mm
07:22 73.9 °F /  23.3 °C 71.1 °F /  21.7 °C 29.94 in /  1013.8 hPa Calm     91 % 0.00 in /  0 mm
07:27 74.2 °F /  23.4 °C 71.1 °F /  21.7 °C 29.94 in /  1013.8 hPa SE 0.3 mph /  0.5 km/h 1.2 mph /  1.9 km/h 90 % 0.00 in /  0 mm
07:32 74.5 °F /  23.6 °C 71.0 °F /  21.7 °C 29.93 in /  1013.4 hPa SE 1.5 mph /  2.4 km/h 4.0 mph /  6.4 km/h 89 % 0.00 in /  0 mm
07:37 74.6 °F /  23.7 °C 71.1 °F /  21.7 °C 29.93 in /  1013.4 hPa Calm   1.2 mph /  1.9 km/h 89 % 0.00 in /  0 mm
07:42 74.8 °F /  23.8 °C 71.3 °F /  21.8 °C 29.94 in /  1013.8 hPa SE 1.2 mph /  1.9 km/h 3.5 mph /  5.6 km/h 89 % 0.00 in /  0 mm
07:47 74.8 °F /  23.8 °C 71.0 °F /  21.7 °C 29.94 in /  1013.8 hPa Calm   2.3 mph /  3.7 km/h 88 % 0.00 in /  0 mm
07:53 74.9 °F /  23.8 °C 71.1 °F /  21.7 °C 29.94 in /  1013.8 hPa South 0.3 mph /  0.5 km/h 2.3 mph /  3.7 km/h 88 % 0.00 in /  0 mm
07:58 74.9 °F /  23.8 °C 71.1 °F /  21.7 °C 29.94 in /  1013.8 hPa South 0.6 mph /  1 km/h 3.0 mph /  4.8 km/h 88 % 0.00 in /  0 mm
08:03 75.0 °F /  23.9 °C 71.2 °F /  21.8 °C 29.94 in /  1013.8 hPa SE 1.2 mph /  1.9 km/h 3.5 mph /  5.6 km/h 88 % 0.00 in /  0 mm
08:08 75.1 °F /  23.9 °C 71.3 °F /  21.8 °C 29.94 in /  1013.8 hPa Calm   2.3 mph /  3.7 km/h 88 % 0.00 in /  0 mm
08:13 75.1 °F /  23.9 °C 71.3 °F /  21.8 °C 29.94 in /  1013.8 hPa SE 0.6 mph /  1 km/h 4.0 mph /  6.4 km/h 88 % 0.00 in /  0 mm
08:18 75.2 °F /  24 °C 71.4 °F /  21.9 °C 29.94 in /  1013.8 hPa SE 0.1 mph /  0.2 km/h   88 % 0.00 in /  0 mm
08:23 75.3 °F /  24.1 °C 71.5 °F /  21.9 °C 29.95 in /  1014.1 hPa WNW 0.6 mph /  1 km/h 3.5 mph /  5.6 km/h 88 % 0.00 in /  0 mm
08:25 75.4 °F /  24.1 °C 71.6 °F /  22 °C 29.94 in /  1013.8 hPa SE 1.4 mph /  2.3 km/h 4.6 mph /  7.4 km/h 88 % 0.00 in /  0 mm
08:30 75.5 °F /  24.2 °C 71.4 °F /  21.9 °C 29.94 in /  1013.8 hPa SSE 0.9 mph /  1.4 km/h 2.3 mph /  3.7 km/h 87 % 0.00 in /  0 mm
08:35 75.5 °F /  24.2 °C 71.7 °F /  22.1 °C 29.94 in /  1013.8 hPa SE 1.2 mph /  1.9 km/h 6.0 mph /  9.7 km/h 88 % 0.00 in /  0 mm
08:40 75.7 °F /  24.3 °C 71.6 °F /  22 °C 29.94 in /  1013.8 hPa SE 0.4 mph /  0.6 km/h 3.5 mph /  5.6 km/h 87 % 0.00 in /  0 mm
08:45 75.9 °F /  24.4 °C 71.8 °F /  22.1 °C 29.95 in /  1014.1 hPa SSE 1.7 mph /  2.7 km/h 5.8 mph /  9.3 km/h 87 % 0.00 in /  0 mm
08:50 76.0 °F /  24.4 °C 71.8 °F /  22.1 °C 29.94 in /  1013.8 hPa SSE 4.1 mph /  6.6 km/h 6.9 mph /  11.1 km/h 87 % 0.00 in /  0 mm
08:55 76.1 °F /  24.5 °C 71.6 °F /  22 °C 29.94 in /  1013.8 hPa SSE 3.4 mph /  5.5 km/h 9.2 mph /  14.8 km/h 86 % 0.00 in /  0 mm
09:00 76.2 °F /  24.6 °C 71.7 °F /  22.1 °C 29.94 in /  1013.8 hPa SE 4.3 mph /  6.9 km/h 11.5 mph /  18.5 km/h 86 % 0.00 in /  0 mm
09:05 76.2 °F /  24.6 °C 71.7 °F /  22.1 °C 29.94 in /  1013.8 hPa SE 1.9 mph /  3.1 km/h 5.8 mph /  9.3 km/h 86 % 0.00 in /  0 mm
09:11 76.2 °F /  24.6 °C 71.7 °F /  22.1 °C 29.94 in /  1013.8 hPa SE 0.6 mph /  1 km/h 5.8 mph /  9.3 km/h 86 % 0.00 in /  0 mm
09:16 76.3 °F /  24.6 °C 72.1 °F /  22.3 °C 29.93 in /  1013.4 hPa SE 1.9 mph /  3.1 km/h 3.5 mph /  5.6 km/h 87 % 0.00 in /  0 mm
09:21 76.5 °F /  24.7 °C 72.3 °F /  22.4 °C 29.93 in /  1013.4 hPa Calm   2.3 mph /  3.7 km/h 87 % 0.00 in /  0 mm
09:26 76.7 °F /  24.8 °C 72.5 °F /  22.5 °C 29.93 in /  1013.4 hPa SSE 5.8 mph /  9.3 km/h 10.4 mph /  16.7 km/h 87 % 0.00 in /  0 mm
09:30 76.9 °F /  24.9 °C 72.4 °F /  22.4 °C 29.93 in /  1013.4 hPa SSE 0.9 mph /  1.4 km/h 9.2 mph /  14.8 km/h 86 % 0.00 in /  0 mm
09:36 77.1 °F /  25.1 °C 72.6 °F /  22.6 °C 29.93 in /  1013.4 hPa SE 6.0 mph /  9.7 km/h 12.0 mph /  19.3 km/h 86 % 0.00 in /  0 mm
09:41 77.2 °F /  25.1 °C 72.7 °F /  22.6 °C 29.92 in /  1013.1 hPa SSE 1.0 mph /  1.6 km/h 6.0 mph /  9.7 km/h 86 % 0.00 in /  0 mm
09:46 77.4 °F /  25.2 °C 72.5 °F /  22.5 °C 29.92 in /  1013.1 hPa SSE 5.0 mph /  8 km/h 12.0 mph /  19.3 km/h 85 % 0.00 in /  0 mm
09:51 77.5 °F /  25.3 °C 72.6 °F /  22.6 °C 29.92 in /  1013.1 hPa SSE 1.0 mph /  1.6 km/h 9.0 mph /  14.5 km/h 85 % 0.00 in /  0 mm
09:56 77.7 °F /  25.4 °C 72.8 °F /  22.7 °C 29.92 in /  1013.1 hPa SSE 2.0 mph /  3.2 km/h 7.0 mph /  11.3 km/h 85 % 0.00 in /  0 mm
10:01 77.6 °F /  25.3 °C 72.4 °F /  22.4 °C 29.92 in /  1013.1 hPa ESE 6.0 mph /  9.7 km/h 10.4 mph /  16.7 km/h 84 % 0.00 in /  0 mm
10:06 77.5 °F /  25.3 °C 72.6 °F /  22.6 °C 29.91 in /  1012.8 hPa SE 1.4 mph /  2.3 km/h 6.9 mph /  11.1 km/h 85 % 0.00 in /  0 mm
10:11 77.6 °F /  25.3 °C 72.7 °F /  22.6 °C 29.92 in /  1013.1 hPa SE 4.5 mph /  7.2 km/h 13.0 mph /  20.9 km/h 85 % 0.00 in /  0 mm
10:16 77.5 °F /  25.3 °C 72.3 °F /  22.4 °C 29.92 in /  1013.1 hPa South 5.3 mph /  8.5 km/h 9.2 mph /  14.8 km/h 84 % 0.00 in /  0 mm
10:21 77.5 °F /  25.3 °C 72.6 °F /  22.6 °C 29.91 in /  1012.8 hPa South 0.7 mph /  1.1 km/h 2.3 mph /  3.7 km/h 85 % 0.00 in /  0 mm
10:26 77.5 °F /  25.3 °C 72.6 °F /  22.6 °C 29.91 in /  1012.8 hPa SSE 1.9 mph /  3.1 km/h 3.5 mph /  5.6 km/h 85 % 0.00 in /  0 mm
10:31 77.6 °F /  25.3 °C 72.7 °F /  22.6 °C 29.91 in /  1012.8 hPa SSE 0.6 mph /  1 km/h 3.5 mph /  5.6 km/h 85 % 0.00 in /  0 mm
10:36 77.8 °F /  25.4 °C 72.9 °F /  22.7 °C 29.91 in /  1012.8 hPa SSE 4.0 mph /  6.4 km/h 11.5 mph /  18.5 km/h 85 % 0.00 in /  0 mm
10:41 78.2 °F /  25.7 °C 73.0 °F /  22.8 °C 29.91 in /  1012.8 hPa SSE 6.3 mph /  10.1 km/h 12.7 mph /  20.4 km/h 84 % 0.00 in /  0 mm
10:46 78.6 °F /  25.9 °C 73.4 °F /  23 °C 29.91 in /  1012.8 hPa South 1.2 mph /  1.9 km/h 3.5 mph /  5.6 km/h 84 % 0.00 in /  0 mm
10:51 78.9 °F /  26.1 °C 73.7 °F /  23.2 °C 29.91 in /  1012.8 hPa SSE 2.8 mph /  4.5 km/h 6.9 mph /  11.1 km/h 84 % 0.00 in /  0 mm
10:56 79.3 °F /  26.3 °C 74.0 °F /  23.3 °C 29.91 in /  1012.8 hPa South 6.3 mph /  10.1 km/h 16.1 mph /  25.9 km/h 84 % 0.00 in /  0 mm
11:01 79.6 °F /  26.4 °C 74.0 °F /  23.3 °C 29.91 in /  1012.8 hPa SSW 1.9 mph /  3.1 km/h 5.8 mph /  9.3 km/h 83 % 0.00 in /  0 mm
11:06 79.8 °F /  26.6 °C 74.2 °F /  23.4 °C 29.91 in /  1012.8 hPa SSE 1.2 mph /  1.9 km/h 5.8 mph /  9.3 km/h 83 % 0.00 in /  0 mm
11:11 80.2 °F /  26.8 °C 74.2 °F /  23.4 °C 29.90 in /  1012.4 hPa SSW 0.3 mph /  0.5 km/h 1.2 mph /  1.9 km/h 82 % 0.00 in /  0 mm
11:16 80.6 °F /  27 °C 74.2 °F /  23.4 °C 29.90 in /  1012.4 hPa South 5.7 mph /  9.2 km/h 9.2 mph /  14.8 km/h 81 % 0.00 in /  0 mm
11:21 81.1 °F /  27.3 °C 75.4 °F /  24.1 °C 29.90 in /  1012.4 hPa SSE 2.2 mph /  3.5 km/h 6.9 mph /  11.1 km/h 83 % 0.00 in /  0 mm
11:26 81.5 °F /  27.5 °C 75.1 °F /  23.9 °C 29.90 in /  1012.4 hPa South 0.8 mph /  1.3 km/h 3.5 mph /  5.6 km/h 81 % 0.00 in /  0 mm
11:31 82.3 °F /  27.9 °C 75.9 °F /  24.4 °C 29.90 in /  1012.4 hPa South 2.2 mph /  3.5 km/h 3.0 mph /  4.8 km/h 81 % 0.00 in /  0 mm
11:36 82.6 °F /  28.1 °C 74.7 °F /  23.7 °C 29.90 in /  1012.4 hPa Calm   5.8 mph /  9.3 km/h 77 % 0.00 in /  0 mm
11:41 82.9 °F /  28.3 °C 74.6 °F /  23.7 °C 29.89 in /  1012.1 hPa SE 2.0 mph /  3.2 km/h 8.1 mph /  13 km/h 76 % 0.00 in /  0 mm
11:46 83.7 °F /  28.7 °C 76.1 °F /  24.5 °C 29.90 in /  1012.4 hPa SE 2.7 mph /  4.3 km/h 6.0 mph /  9.7 km/h 78 % 0.00 in /  0 mm
11:51 84.3 °F /  29.1 °C 77.5 °F /  25.3 °C 29.90 in /  1012.4 hPa SE 0.2 mph /  0.3 km/h 3.0 mph /  4.8 km/h 80 % 0.00 in /  0 mm
11:56 84.2 °F /  29 °C 74.6 °F /  23.7 °C 29.90 in /  1012.4 hPa SSE 0.6 mph /  1 km/h 3.5 mph /  5.6 km/h 73 % 0.00 in /  0 mm
12:01 84.3 °F /  29.1 °C 75.5 °F /  24.2 °C 29.89 in /  1012.1 hPa SW 0.6 mph /  1 km/h 3.0 mph /  4.8 km/h 75 % 0.00 in /  0 mm
12:06 84.6 °F /  29.2 °C 75.8 °F /  24.3 °C 29.89 in /  1012.1 hPa SW 2.5 mph /  4 km/h 4.6 mph /  7.4 km/h 75 % 0.00 in /  0 mm
12:11 85.0 °F /  29.4 °C 75.4 °F /  24.1 °C 29.90 in /  1012.4 hPa SE 1.4 mph /  2.3 km/h 2.3 mph /  3.7 km/h 73 % 0.00 in /  0 mm
12:16 85.0 °F /  29.4 °C 75.4 °F /  24.1 °C 29.89 in /  1012.1 hPa South 1.3 mph /  2.1 km/h 4.6 mph /  7.4 km/h 73 % 0.00 in /  0 mm
12:21 85.1 °F /  29.5 °C 75.1 °F /  23.9 °C 29.89 in /  1012.1 hPa SSE 0.7 mph /  1.1 km/h 1.2 mph /  1.9 km/h 72 % 0.00 in /  0 mm
12:26 85.1 °F /  29.5 °C 75.5 °F /  24.2 °C 29.89 in /  1012.1 hPa SSW 1.5 mph /  2.4 km/h 4.6 mph /  7.4 km/h 73 % 0.00 in /  0 mm
12:31 85.0 °F /  29.4 °C 75.0 °F /  23.9 °C 29.89 in /  1012.1 hPa SE 1.2 mph /  1.9 km/h 3.5 mph /  5.6 km/h 72 % 0.00 in /  0 mm
12:36 84.7 °F /  29.3 °C 75.1 °F /  23.9 °C 29.89 in /  1012.1 hPa South 0.9 mph /  1.4 km/h 3.5 mph /  5.6 km/h 73 % 0.00 in /  0 mm
12:41 84.5 °F /  29.2 °C 74.9 °F /  23.8 °C 29.89 in /  1012.1 hPa ESE 4.9 mph /  7.9 km/h 11.0 mph /  17.7 km/h 73 % 0.00 in /  0 mm
12:46 84.2 °F /  29 °C 74.6 °F /  23.7 °C 29.89 in /  1012.1 hPa South 1.2 mph /  1.9 km/h 9.2 mph /  14.8 km/h 73 % 0.00 in /  0 mm
12:51 84.4 °F /  29.1 °C 75.2 °F /  24 °C 29.89 in /  1012.1 hPa SSW 2.9 mph /  4.7 km/h 5.0 mph /  8 km/h 74 % 0.00 in /  0 mm
12:56 84.8 °F /  29.3 °C 75.2 °F /  24 °C 29.89 in /  1012.1 hPa SSE 2.4 mph /  3.9 km/h 9.2 mph /  14.8 km/h 73 % 0.00 in /  0 mm
13:01 85.0 °F /  29.4 °C 75.0 °F /  23.9 °C 29.89 in /  1012.1 hPa SSW 1.5 mph /  2.4 km/h 3.5 mph /  5.6 km/h 72 % 0.00 in /  0 mm
13:06 85.0 °F /  29.4 °C 75.4 °F /  24.1 °C 29.88 in /  1011.7 hPa SW 1.5 mph /  2.4 km/h 3.5 mph /  5.6 km/h 73 % 0.00 in /  0 mm
13:11 85.3 °F /  29.6 °C 75.7 °F /  24.3 °C 29.88 in /  1011.7 hPa SE 2.0 mph /  3.2 km/h 3.5 mph /  5.6 km/h 73 % 0.00 in /  0 mm
13:16 85.5 °F /  29.7 °C 75.0 °F /  23.9 °C 29.88 in /  1011.7 hPa South 3.1 mph /  5 km/h 10.4 mph /  16.7 km/h 71 % 0.00 in /  0 mm
13:17 85.5 °F /  29.7 °C 75.0 °F /  23.9 °C 29.88 in /  1011.7 hPa SW 3.1 mph /  5 km/h 10.4 mph /  16.7 km/h 71 % 0.00 in /  0 mm
13:22 85.9 °F /  29.9 °C 75.8 °F /  24.3 °C 29.87 in /  1011.4 hPa South 4.5 mph /  7.2 km/h 6.9 mph /  11.1 km/h 72 % 0.00 in /  0 mm
13:27 86.0 °F /  30 °C 74.6 °F /  23.7 °C 29.87 in /  1011.4 hPa South 2.6 mph /  4.2 km/h 4.6 mph /  7.4 km/h 69 % 0.00 in /  0 mm
13:32 86.2 °F /  30.1 °C 75.3 °F /  24.1 °C 29.87 in /  1011.4 hPa SSE 2.4 mph /  3.9 km/h 5.8 mph /  9.3 km/h 70 % 0.00 in /  0 mm
13:37 86.3 °F /  30.2 °C 74.9 °F /  23.8 °C 29.87 in /  1011.4 hPa SSW 1.6 mph /  2.6 km/h 3.5 mph /  5.6 km/h 69 % 0.00 in /  0 mm
13:42 86.2 °F /  30.1 °C 74.8 °F /  23.8 °C 29.86 in /  1011.1 hPa SSW 5.7 mph /  9.2 km/h 13.8 mph /  22.2 km/h 69 % 0.00 in /  0 mm
13:47 85.7 °F /  29.8 °C 74.4 °F /  23.6 °C 29.87 in /  1011.4 hPa South 2.1 mph /  3.4 km/h 11.5 mph /  18.5 km/h 69 % 0.00 in /  0 mm
13:52 85.3 °F /  29.6 °C 74.4 °F /  23.6 °C 29.87 in /  1011.4 hPa South 3.1 mph /  5 km/h 6.9 mph /  11.1 km/h 70 % 0.00 in /  0 mm
13:57 85.2 °F /  29.6 °C 75.1 °F /  23.9 °C 29.87 in /  1011.4 hPa SSW 4.7 mph /  7.6 km/h 9.2 mph /  14.8 km/h 72 % 0.00 in /  0 mm
14:02 85.1 °F /  29.5 °C 75.1 °F /  23.9 °C 29.87 in /  1011.4 hPa SSE 6.7 mph /  10.8 km/h 16.1 mph /  25.9 km/h 72 % 0.00 in /  0 mm
14:07 84.3 °F /  29.1 °C 74.3 °F /  23.5 °C 29.86 in /  1011.1 hPa SE 1.2 mph /  1.9 km/h 5.8 mph /  9.3 km/h 72 % 0.00 in /  0 mm
14:12 83.8 °F /  28.8 °C 74.2 °F /  23.4 °C 29.86 in /  1011.1 hPa WNW 1.3 mph /  2.1 km/h 4.0 mph /  6.4 km/h 73 % 0.00 in /  0 mm
14:17 83.0 °F /  28.3 °C 73.9 °F /  23.3 °C 29.86 in /  1011.1 hPa SSE 5.1 mph /  8.2 km/h 11.5 mph /  18.5 km/h 74 % 0.00 in /  0 mm
14:22 82.2 °F /  27.9 °C 73.9 °F /  23.3 °C 29.86 in /  1011.1 hPa SW 2.4 mph /  3.9 km/h 4.6 mph /  7.4 km/h 76 % 0.00 in /  0 mm
14:27 82.0 °F /  27.8 °C 73.7 °F /  23.2 °C 29.85 in /  1010.7 hPa South 1.4 mph /  2.3 km/h 4.0 mph /  6.4 km/h 76 % 0.00 in /  0 mm
14:32 81.4 °F /  27.4 °C 73.5 °F /  23.1 °C 29.86 in /  1011.1 hPa SSE 1.7 mph /  2.7 km/h 4.6 mph /  7.4 km/h 77 % 0.00 in /  0 mm
14:37 81.6 °F /  27.6 °C 74.5 °F /  23.6 °C 29.85 in /  1010.7 hPa SE 8.2 mph /  13.2 km/h 12.0 mph /  19.3 km/h 79 % 0.00 in /  0 mm
14:42 81.9 °F /  27.7 °C 74.0 °F /  23.3 °C 29.85 in /  1010.7 hPa SSE 1.4 mph /  2.3 km/h 5.8 mph /  9.3 km/h 77 % 0.00 in /  0 mm
14:47 82.1 °F /  27.8 °C 74.2 °F /  23.4 °C 29.85 in /  1010.7 hPa SSE 2.2 mph /  3.5 km/h 3.5 mph /  5.6 km/h 77 % 0.00 in /  0 mm
14:52 82.4 °F /  28 °C 74.8 °F /  23.8 °C 29.84 in /  1010.4 hPa SSW 0.5 mph /  0.8 km/h 1.2 mph /  1.9 km/h 78 % 0.00 in /  0 mm
14:57 82.9 °F /  28.3 °C 74.6 °F /  23.7 °C 29.84 in /  1010.4 hPa SE 1.4 mph /  2.3 km/h 4.0 mph /  6.4 km/h 76 % 0.00 in /  0 mm
15:02 83.3 °F /  28.5 °C 74.1 °F /  23.4 °C 29.84 in /  1010.4 hPa SSE 6.2 mph /  10 km/h 16.1 mph /  25.9 km/h 74 % 0.00 in /  0 mm
15:07 83.4 °F /  28.6 °C 73.8 °F /  23.2 °C 29.85 in /  1010.7 hPa SE 5.6 mph /  9 km/h 10.4 mph /  16.7 km/h 73 % 0.00 in /  0 mm
15:12 83.2 °F /  28.4 °C 74.0 °F /  23.3 °C 29.84 in /  1010.4 hPa SE 1.4 mph /  2.3 km/h 3.5 mph /  5.6 km/h 74 % 0.00 in /  0 mm
15:17 83.1 °F /  28.4 °C 73.9 °F /  23.3 °C 29.84 in /  1010.4 hPa South 0.2 mph /  0.3 km/h 1.2 mph /  1.9 km/h 74 % 0.00 in /  0 mm
15:22 82.9 °F /  28.3 °C 74.2 °F /  23.4 °C 29.84 in /  1010.4 hPa South 1.5 mph /  2.4 km/h 3.5 mph /  5.6 km/h 75 % 0.00 in /  0 mm
15:27 82.6 °F /  28.1 °C 73.9 °F /  23.3 °C 29.85 in /  1010.7 hPa SSW 3.4 mph /  5.5 km/h 3.5 mph /  5.6 km/h 75 % 0.00 in /  0 mm
15:32 82.2 °F /  27.9 °C 73.9 °F /  23.3 °C 29.85 in /  1010.7 hPa South 1.5 mph /  2.4 km/h 5.0 mph /  8 km/h 76 % 0.00 in /  0 mm
15:37 81.7 °F /  27.6 °C 73.4 °F /  23 °C 29.85 in /  1010.7 hPa SW 1.5 mph /  2.4 km/h 5.0 mph /  8 km/h 76 % 0.00 in /  0 mm
15:42 81.4 °F /  27.4 °C 73.1 °F /  22.8 °C 29.84 in /  1010.4 hPa SSE 0.1 mph /  0.2 km/h 3.5 mph /  5.6 km/h 76 % 0.00 in /  0 mm
15:47 81.1 °F /  27.3 °C 73.2 °F /  22.9 °C 29.85 in /  1010.7 hPa SSE 2.3 mph /  3.7 km/h 4.0 mph /  6.4 km/h 77 % 0.00 in /  0 mm
15:52 80.8 °F /  27.1 °C 72.9 °F /  22.7 °C 29.85 in /  1010.7 hPa SSE 2.7 mph /  4.3 km/h 4.6 mph /  7.4 km/h 77 % 0.00 in /  0 mm
15:57 80.4 °F /  26.9 °C 72.9 °F /  22.7 °C 29.85 in /  1010.7 hPa SE 1.1 mph /  1.8 km/h 4.0 mph /  6.4 km/h 78 % 0.00 in /  0 mm
16:03 80.3 °F /  26.8 °C 73.2 °F /  22.9 °C 29.85 in /  1010.7 hPa SSW 3.5 mph /  5.6 km/h 6.9 mph /  11.1 km/h 79 % 0.00 in /  0 mm
16:08 80.0 °F /  26.7 °C 72.9 °F /  22.7 °C 29.85 in /  1010.7 hPa South 3.8 mph /  6.1 km/h 6.9 mph /  11.1 km/h 79 % 0.00 in /  0 mm
16:13 79.8 °F /  26.6 °C 73.1 °F /  22.8 °C 29.85 in /  1010.7 hPa ESE 2.4 mph /  3.9 km/h 5.8 mph /  9.3 km/h 80 % 0.00 in /  0 mm
16:18 79.6 °F /  26.4 °C 72.9 °F /  22.7 °C 29.84 in /  1010.4 hPa South 2.9 mph /  4.7 km/h 3.0 mph /  4.8 km/h 80 % 0.00 in /  0 mm
16:23 79.3 °F /  26.3 °C 72.6 °F /  22.6 °C 29.84 in /  1010.4 hPa SW 5.7 mph /  9.2 km/h 7.0 mph /  11.3 km/h 80 % 0.00 in /  0 mm
16:28 79.2 °F /  26.2 °C 72.9 °F /  22.7 °C 29.84 in /  1010.4 hPa South 1.6 mph /  2.6 km/h 5.0 mph /  8 km/h 81 % 0.00 in /  0 mm
16:33 79.1 °F /  26.2 °C 72.8 °F /  22.7 °C 29.84 in /  1010.4 hPa South 3.1 mph /  5 km/h 6.9 mph /  11.1 km/h 81 % 0.00 in /  0 mm
16:38 78.8 °F /  26 °C 72.5 °F /  22.5 °C 29.84 in /  1010.4 hPa South 2.1 mph /  3.4 km/h 4.6 mph /  7.4 km/h 81 % 0.00 in /  0 mm
16:43 78.3 °F /  25.7 °C 72.3 °F /  22.4 °C 29.84 in /  1010.4 hPa SE 1.4 mph /  2.3 km/h 4.6 mph /  7.4 km/h 82 % 0.00 in /  0 mm
16:48 78.0 °F /  25.6 °C 72.4 °F /  22.4 °C 29.84 in /  1010.4 hPa SSE 1.4 mph /  2.3 km/h 4.6 mph /  7.4 km/h 83 % 0.00 in /  0 mm
16:53 77.7 °F /  25.4 °C 72.5 °F /  22.5 °C 29.83 in /  1010 hPa SSW 0.1 mph /  0.2 km/h 3.5 mph /  5.6 km/h 84 % 0.01 in /  0.25 mm
16:58 77.4 °F /  25.2 °C 72.5 °F /  22.5 °C 29.83 in /  1010 hPa SSW 2.6 mph /  4.2 km/h 5.8 mph /  9.3 km/h 85 % 0.01 in /  0.25 mm
17:03 77.1 °F /  25.1 °C 72.6 °F /  22.6 °C 29.83 in /  1010 hPa SSE 2.2 mph /  3.5 km/h 4.6 mph /  7.4 km/h 86 % 0.01 in /  0.25 mm
17:08 76.9 °F /  24.9 °C 73.1 °F /  22.8 °C 29.83 in /  1010 hPa SSE 3.3 mph /  5.3 km/h 6.0 mph /  9.7 km/h 88 % 0.01 in /  0.25 mm
17:13 76.9 °F /  24.9 °C 73.1 °F /  22.8 °C 29.83 in /  1010 hPa South 2.9 mph /  4.7 km/h 5.8 mph /  9.3 km/h 88 % 0.01 in /  0.25 mm
17:18 76.9 °F /  24.9 °C 72.7 °F /  22.6 °C 29.83 in /  1010 hPa SSW 1.8 mph /  2.9 km/h 8.1 mph /  13 km/h 87 % 0.01 in /  0.25 mm
17:23 76.8 °F /  24.9 °C 72.3 °F /  22.4 °C 29.83 in /  1010 hPa SSW 2.3 mph /  3.7 km/h 7.0 mph /  11.3 km/h 86 % 0.01 in /  0.25 mm
17:28 76.8 °F /  24.9 °C 72.3 °F /  22.4 °C 29.82 in /  1009.7 hPa South 3.5 mph /  5.6 km/h 6.9 mph /  11.1 km/h 86 % 0.01 in /  0.25 mm
17:33 76.8 °F /  24.9 °C 72.3 °F /  22.4 °C 29.83 in /  1010 hPa South 2.3 mph /  3.7 km/h 4.6 mph /  7.4 km/h 86 % 0.01 in /  0.25 mm
17:38 77.0 °F /  25 °C 72.5 °F /  22.5 °C 29.82 in /  1009.7 hPa SW 3.4 mph /  5.5 km/h 5.8 mph /  9.3 km/h 86 % 0.01 in /  0.25 mm
17:43 77.1 °F /  25.1 °C 72.2 °F /  22.3 °C 29.82 in /  1009.7 hPa South 2.3 mph /  3.7 km/h 8.1 mph /  13 km/h 85 % 0.01 in /  0.25 mm
17:48 77.1 °F /  25.1 °C 72.2 °F /  22.3 °C 29.83 in /  1010 hPa South 1.9 mph /  3.1 km/h 4.0 mph /  6.4 km/h 85 % 0.01 in /  0.25 mm
17:53 77.2 °F /  25.1 °C 72.3 °F /  22.4 °C 29.83 in /  1010 hPa South 4.0 mph /  6.4 km/h 6.9 mph /  11.1 km/h 85 % 0.00 in /  0 mm
17:58 77.2 °F /  25.1 °C 72.3 °F /  22.4 °C 29.83 in /  1010 hPa South 3.1 mph /  5 km/h 6.9 mph /  11.1 km/h 85 % 0.00 in /  0 mm
18:03 77.2 °F /  25.1 °C 72.0 °F /  22.2 °C 29.83 in /  1010 hPa SE 2.2 mph /  3.5 km/h 3.5 mph /  5.6 km/h 84 % 0.00 in /  0 mm
18:09 77.1 °F /  25.1 °C 72.2 °F /  22.3 °C 29.83 in /  1010 hPa SSW 4.1 mph /  6.6 km/h 6.9 mph /  11.1 km/h 85 % 0.00 in /  0 mm
18:13 77.0 °F /  25 °C 72.1 °F /  22.3 °C 29.82 in /  1009.7 hPa South 2.4 mph /  3.9 km/h 5.0 mph /  8 km/h 85 % 0.00 in /  0 mm
18:18 76.9 °F /  24.9 °C 72.0 °F /  22.2 °C 29.82 in /  1009.7 hPa SSE 0.5 mph /  0.8 km/h 6.9 mph /  11.1 km/h 85 % 0.00 in /  0 mm
18:24 76.8 °F /  24.9 °C 71.9 °F /  22.2 °C 29.82 in /  1009.7 hPa South 2.6 mph /  4.2 km/h 4.6 mph /  7.4 km/h 85 % 0.00 in /  0 mm
18:29 76.7 °F /  24.8 °C 71.8 °F /  22.1 °C 29.83 in /  1010 hPa South 3.9 mph /  6.3 km/h 10.4 mph /  16.7 km/h 85 % 0.00 in /  0 mm
18:34 76.7 °F /  24.8 °C 71.8 °F /  22.1 °C 29.83 in /  1010 hPa SSE 2.1 mph /  3.4 km/h 4.6 mph /  7.4 km/h 85 % 0.00 in /  0 mm
18:39 76.6 °F /  24.8 °C 71.7 °F /  22.1 °C 29.83 in /  1010 hPa SSE 1.3 mph /  2.1 km/h 3.5 mph /  5.6 km/h 85 % 0.00 in /  0 mm
18:44 76.5 °F /  24.7 °C 71.7 °F /  22.1 °C 29.82 in /  1009.7 hPa South 4.2 mph /  6.8 km/h 9.2 mph /  14.8 km/h 85 % 0.00 in /  0 mm
18:49 76.4 °F /  24.7 °C 71.6 °F /  22 °C 29.83 in /  1010 hPa South 0.6 mph /  1 km/h 2.3 mph /  3.7 km/h 85 % 0.00 in /  0 mm
18:54 76.3 °F /  24.6 °C 71.8 °F /  22.1 °C 29.84 in /  1010.4 hPa SW 3.8 mph /  6.1 km/h 9.0 mph /  14.5 km/h 86 % 0.00 in /  0 mm
18:59 76.2 °F /  24.6 °C 71.7 °F /  22.1 °C 29.84 in /  1010.4 hPa SSW 2.7 mph /  4.3 km/h 6.9 mph /  11.1 km/h 86 % 0.00 in /  0 mm
19:04 76.1 °F /  24.5 °C 71.6 °F /  22 °C 29.84 in /  1010.4 hPa SW 3.2 mph /  5.1 km/h 6.9 mph /  11.1 km/h 86 % 0.00 in /  0 mm
19:09 76.0 °F /  24.4 °C 71.5 °F /  21.9 °C 29.84 in /  1010.4 hPa SE 2.9 mph /  4.7 km/h 5.8 mph /  9.3 km/h 86 % 0.00 in /  0 mm
19:14 75.9 °F /  24.4 °C 71.8 °F /  22.1 °C 29.85 in /  1010.7 hPa SE 4.0 mph /  6.4 km/h 9.2 mph /  14.8 km/h 87 % 0.00 in /  0 mm
19:19 75.7 °F /  24.3 °C 71.6 °F /  22 °C 29.84 in /  1010.4 hPa South 3.7 mph /  6 km/h 5.0 mph /  8 km/h 87 % 0.00 in /  0 mm
19:24 75.6 °F /  24.2 °C 71.5 °F /  21.9 °C 29.84 in /  1010.4 hPa SSW 3.3 mph /  5.3 km/h 9.2 mph /  14.8 km/h 87 % 0.00 in /  0 mm
19:29 75.5 °F /  24.2 °C 71.7 °F /  22.1 °C 29.84 in /  1010.4 hPa SW 3.6 mph /  5.8 km/h 5.8 mph /  9.3 km/h 88 % 0.00 in /  0 mm
19:34 75.3 °F /  24.1 °C 71.5 °F /  21.9 °C 29.84 in /  1010.4 hPa SSE 1.3 mph /  2.1 km/h 9.2 mph /  14.8 km/h 88 % 0.00 in /  0 mm
19:39 75.3 °F /  24.1 °C 71.5 °F /  21.9 °C 29.84 in /  1010.4 hPa South 1.6 mph /  2.6 km/h 6.9 mph /  11.1 km/h 88 % 0.00 in /  0 mm
19:44 75.2 °F /  24 °C 71.4 °F /  21.9 °C 29.83 in /  1010 hPa South 4.3 mph /  6.9 km/h 5.8 mph /  9.3 km/h 88 % 0.00 in /  0 mm
19:49 75.1 °F /  23.9 °C 71.6 °F /  22 °C 29.83 in /  1010 hPa SE 0.4 mph /  0.6 km/h 3.5 mph /  5.6 km/h 89 % 0.00 in /  0 mm
19:54 75.1 °F /  23.9 °C 71.6 °F /  22 °C 29.83 in /  1010 hPa SE 1.1 mph /  1.8 km/h 6.0 mph /  9.7 km/h 89 % 0.00 in /  0 mm
19:59 75.1 °F /  23.9 °C 71.6 °F /  22 °C 29.83 in /  1010 hPa SE 0.7 mph /  1.1 km/h 2.3 mph /  3.7 km/h 89 % 0.00 in /  0 mm
20:04 75.1 °F /  23.9 °C 71.6 °F /  22 °C 29.82 in /  1009.7 hPa South 2.1 mph /  3.4 km/h 4.6 mph /  7.4 km/h 89 % 0.00 in /  0 mm
20:09 75.1 °F /  23.9 °C 71.6 °F /  22 °C 29.83 in /  1010 hPa SW 2.0 mph /  3.2 km/h 4.6 mph /  7.4 km/h 89 % 0.00 in /  0 mm
20:14 75.0 °F /  23.9 °C 71.5 °F /  21.9 °C 29.82 in /  1009.7 hPa SSW 1.0 mph /  1.6 km/h 3.5 mph /  5.6 km/h 89 % 0.00 in /  0 mm
20:19 74.9 °F /  23.8 °C 71.4 °F /  21.9 °C 29.83 in /  1010 hPa SSW 2.1 mph /  3.4 km/h 5.8 mph /  9.3 km/h 89 % 0.00 in /  0 mm
20:24 74.9 °F /  23.8 °C 71.4 °F /  21.9 °C 29.84 in /  1010.4 hPa SSW 4.4 mph /  7.1 km/h 8.1 mph /  13 km/h 89 % 0.00 in /  0 mm
20:29 74.9 °F /  23.8 °C 71.4 °F /  21.9 °C 29.84 in /  1010.4 hPa SSW 4.4 mph /  7.1 km/h 6.9 mph /  11.1 km/h 89 % 0.00 in /  0 mm
20:34 74.8 °F /  23.8 °C 71.3 °F /  21.8 °C 29.84 in /  1010.4 hPa West 4.2 mph /  6.8 km/h 5.0 mph /  8 km/h 89 % 0.00 in /  0 mm
20:39 74.8 °F /  23.8 °C 71.3 °F /  21.8 °C 29.84 in /  1010.4 hPa SW 1.6 mph /  2.6 km/h 4.0 mph /  6.4 km/h 89 % 0.00 in /  0 mm
20:44 74.7 °F /  23.7 °C 70.9 °F /  21.6 °C 29.83 in /  1010 hPa Calm   2.3 mph /  3.7 km/h 88 % 0.00 in /  0 mm
20:50 74.5 °F /  23.6 °C 70.7 °F /  21.5 °C 29.84 in /  1010.4 hPa SW 0.5 mph /  0.8 km/h 4.6 mph /  7.4 km/h 88 % 0.00 in /  0 mm
20:55 74.4 °F /  23.6 °C 70.6 °F /  21.4 °C 29.83 in /  1010 hPa WSW 2.0 mph /  3.2 km/h 6.9 mph /  11.1 km/h 88 % 0.00 in /  0 mm
21:00 74.3 °F /  23.5 °C 70.5 °F /  21.4 °C 29.83 in /  1010 hPa WSW 0.2 mph /  0.3 km/h 1.2 mph /  1.9 km/h 88 % 0.00 in /  0 mm
21:05 74.2 °F /  23.4 °C 70.1 °F /  21.2 °C 29.83 in /  1010 hPa SSW 0.7 mph /  1.1 km/h 3.5 mph /  5.6 km/h 87 % 0.00 in /  0 mm
21:10 74.0 °F /  23.3 °C 69.9 °F /  21.1 °C 29.83 in /  1010 hPa SSW 0.3 mph /  0.5 km/h 2.3 mph /  3.7 km/h 87 % 0.00 in /  0 mm
21:15 73.9 °F /  23.3 °C 69.8 °F /  21 °C 29.83 in /  1010 hPa Calm     87 % 0.00 in /  0 mm
21:20 73.8 °F /  23.2 °C 69.3 °F /  20.7 °C 29.83 in /  1010 hPa SW 0.2 mph /  0.3 km/h 1.2 mph /  1.9 km/h 86 % 0.00 in /  0 mm
21:30 73.6 °F /  23.1 °C 69.2 °F /  20.7 °C 29.83 in /  1010 hPa SW 0.2 mph /  0.3 km/h 2.3 mph /  3.7 km/h 86 % 0.00 in /  0 mm
21:35 73.5 °F /  23.1 °C 69.1 °F /  20.6 °C 29.83 in /  1010 hPa SW 0.1 mph /  0.2 km/h 2.3 mph /  3.7 km/h 86 % 0.00 in /  0 mm
21:40 73.5 °F /  23.1 °C 69.1 °F /  20.6 °C 29.83 in /  1010 hPa Calm   1.2 mph /  1.9 km/h 86 % 0.00 in /  0 mm
21:45 73.4 °F /  23 °C 69.0 °F /  20.6 °C 29.84 in /  1010.4 hPa Calm   1.2 mph /  1.9 km/h 86 % 0.00 in /  0 mm
21:50 73.4 °F /  23 °C 69.0 °F /  20.6 °C 29.85 in /  1010.7 hPa WSW 0.3 mph /  0.5 km/h 2.0 mph /  3.2 km/h 86 % 0.00 in /  0 mm
21:55 73.3 °F /  22.9 °C 68.9 °F /  20.5 °C 29.84 in /  1010.4 hPa WSW 0.5 mph /  0.8 km/h 3.5 mph /  5.6 km/h 86 % 0.00 in /  0 mm
22:00 73.2 °F /  22.9 °C 68.8 °F /  20.4 °C 29.84 in /  1010.4 hPa WSW 0.8 mph /  1.3 km/h 2.0 mph /  3.2 km/h 86 % 0.00 in /  0 mm
22:05 73.1 °F /  22.8 °C 68.7 °F /  20.4 °C 29.85 in /  1010.7 hPa SW 0.5 mph /  0.8 km/h 2.3 mph /  3.7 km/h 86 % 0.00 in /  0 mm
22:10 73.1 °F /  22.8 °C 68.7 °F /  20.4 °C 29.85 in /  1010.7 hPa SSW 1.3 mph /  2.1 km/h 3.5 mph /  5.6 km/h 86 % 0.00 in /  0 mm
22:15 73.1 °F /  22.8 °C 68.7 °F /  20.4 °C 29.85 in /  1010.7 hPa South 1.3 mph /  2.1 km/h 3.0 mph /  4.8 km/h 86 % 0.00 in /  0 mm
22:20 73.1 °F /  22.8 °C 68.7 °F /  20.4 °C 29.86 in /  1011.1 hPa SSW 0.5 mph /  0.8 km/h 2.0 mph /  3.2 km/h 86 % 0.00 in /  0 mm
22:25 73.1 °F /  22.8 °C 68.7 °F /  20.4 °C 29.86 in /  1011.1 hPa SSW 1.6 mph /  2.6 km/h 3.5 mph /  5.6 km/h 86 % 0.00 in /  0 mm
22:30 73.1 °F /  22.8 °C 68.7 °F /  20.4 °C 29.86 in /  1011.1 hPa SW 1.1 mph /  1.8 km/h 3.5 mph /  5.6 km/h 86 % 0.00 in /  0 mm
22:33 73.0 °F /  22.8 °C 68.6 °F /  20.3 °C 29.86 in /  1011.1 hPa SSW 1.5 mph /  2.4 km/h 3.5 mph /  5.6 km/h 86 % 0.00 in /  0 mm
22:39 73.0 °F /  22.8 °C 68.6 °F /  20.3 °C 29.86 in /  1011.1 hPa SW 0.3 mph /  0.5 km/h 1.2 mph /  1.9 km/h 86 % 0.00 in /  0 mm
22:44 72.9 °F /  22.7 °C 68.8 °F /  20.4 °C 29.86 in /  1011.1 hPa WSW 0.2 mph /  0.3 km/h 2.3 mph /  3.7 km/h 87 % 0.00 in /  0 mm
22:49 72.8 °F /  22.7 °C 68.7 °F /  20.4 °C 29.86 in /  1011.1 hPa WSW 0.9 mph /  1.4 km/h 3.5 mph /  5.6 km/h 87 % 0.00 in /  0 mm
22:54 72.6 °F /  22.6 °C 68.5 °F /  20.3 °C 29.86 in /  1011.1 hPa SW 0.8 mph /  1.3 km/h 2.3 mph /  3.7 km/h 87 % 0.00 in /  0 mm
22:59 72.6 °F /  22.6 °C 68.5 °F /  20.3 °C 29.86 in /  1011.1 hPa Calm     87 % 0.00 in /  0 mm
23:04 72.5 °F /  22.5 °C 68.4 °F /  20.2 °C 29.86 in /  1011.1 hPa WSW 0.3 mph /  0.5 km/h 1.2 mph /  1.9 km/h 87 % 0.00 in /  0 mm
23:09 72.4 °F /  22.4 °C 68.6 °F /  20.3 °C 29.86 in /  1011.1 hPa SW 0.2 mph /  0.3 km/h 1.2 mph /  1.9 km/h 88 % 0.00 in /  0 mm
23:14 72.2 °F /  22.3 °C 68.4 °F /  20.2 °C 29.86 in /  1011.1 hPa WSW 2.7 mph /  4.3 km/h 3.5 mph /  5.6 km/h 88 % 0.00 in /  0 mm
23:19 72.2 °F /  22.3 °C 68.4 °F /  20.2 °C 29.86 in /  1011.1 hPa SW 1.6 mph /  2.6 km/h 3.5 mph /  5.6 km/h 88 % 0.00 in /  0 mm
23:24 72.1 °F /  22.3 °C 68.3 °F /  20.2 °C 29.86 in /  1011.1 hPa SW 0.7 mph /  1.1 km/h 6.0 mph /  9.7 km/h 88 % 0.00 in /  0 mm
23:29 72.0 °F /  22.2 °C 68.6 °F /  20.3 °C 29.86 in /  1011.1 hPa WSW 1.3 mph /  2.1 km/h 3.5 mph /  5.6 km/h 89 % 0.00 in /  0 mm
23:34 71.9 °F /  22.2 °C 68.5 °F /  20.3 °C 29.86 in /  1011.1 hPa SW 1.2 mph /  1.9 km/h 5.0 mph /  8 km/h 89 % 0.00 in /  0 mm
23:40 71.9 °F /  22.2 °C 68.5 °F /  20.3 °C 29.86 in /  1011.1 hPa WSW 0.1 mph /  0.2 km/h   89 % 0.00 in /  0 mm
23:45 71.9 °F /  22.2 °C 68.5 °F /  20.3 °C 29.86 in /  1011.1 hPa WSW 0.1 mph /  0.2 km/h 1.2 mph /  1.9 km/h 89 % 0.00 in /  0 mm
23:49 71.8 °F /  22.1 °C 68.4 °F /  20.2 °C 29.86 in /  1011.1 hPa SSW 1.4 mph /  2.3 km/h 4.6 mph /  7.4 km/h 89 % 0.00 in /  0 mm
23:55 71.8 °F /  22.1 °C 68.4 °F /  20.2 °C 29.86 in /  1011.1 hPa SSW 0.6 mph /  1 km/h 2.3 mph /  3.7 km/h 89 % 0.00 in /  0 mm
Crab Meadow Weather
Compliments of Weather Underground - 3 mb

Script developed by  Jim McMurry - jmcmurry@mwt.net Adapted for the template by  Wim van der Kuil - Leuven-Template.eu

Recycling: Recycling one aluminum can saves enough energy to run a TV for three hours -- or the equivalent of a half a gallon of gasoline.